METAR Data
IDs: Format: Raw Decoded Include TAF

Data at: 0645 UTC 23 Feb 2019

KLVJ 230638Z AUTO 17010KT 2 1/2SM BR OVC002 21/21 A2986 RMK AO2 T02110211
KLVJ 230607Z AUTO 17010KT 1SM BR OVC002 21/21 A2987 RMK AO2 T02110211
KLVJ 230553Z AUTO 17008KT 3/4SM BR VV002 21/21 A2988 RMK AO2 SLP116 T02110211 10217 20206 402330106 58009
KLVJ 230453Z AUTO 17006KT 1/2SM FG VV002 21/21 A2989 RMK AO2 SLP120 T02110211
KLVJ 230353Z AUTO 16006KT 1/2SM FG VV002 21/21 A2989 RMK AO2 SLP121 T02060206
KLVJ 230253Z AUTO 17005KT 3/4SM BR VV002 21/21 A2990 RMK AO2 SLP125 T02110211 53006
KLVJ 230153Z AUTO 17005KT 1/2SM FG VV002 21/21 A2990 RMK AO2 SLP123 T02110211
KLVJ 230133Z AUTO 17006KT 3/4SM BR VV002 21/21 A2989 RMK AO2 T02110211
KLVJ 230120Z AUTO 17005KT 1SM BR VV002 21/21 A2989 RMK AO2 T02110211
KLVJ 230053Z AUTO 17006KT 3/4SM BR VV002 22/22 A2989 RMK AO2 SLP120 T02170217
KLVJ 230042Z AUTO 17005KT 3/4SM BR VV002 22/22 A2989 RMK AO2 T02170217
KLVJ 222353Z AUTO 18006KT 1 1/4SM BR OVC003 22/22 A2989 RMK AO2 SLP119 T02170217 10233 20183 53004
KLVJ 222349Z AUTO 18006KT 1 1/4SM BR OVC003 22/22 A2989 RMK AO2
KLVJ 222338Z AUTO 18006KT 2 1/2SM BR OVC004 22/22 A2989 RMK AO2 T02220222
KLVJ 222253Z AUTO 15005KT 7SM OVC006 23/22 A2987 RMK AO2 SLP113 T02280222
KLVJ 222153Z AUTO 16007KT 8SM OVC009 23/22 A2987 RMK AO2 CIG 006V014 SLP115 T02280222
KLVJ 222053Z AUTO 05004KT 6SM BR BKN012 OVC020 21/20 A2988 RMK AO2 SLP118 T02110200 56026
KLVJ 221953Z AUTO 36004KT 5SM BR BKN010 OVC014 20/19 A2990 RMK AO2 CIG 008V012 SLP124 T02000194
KLVJ 221913Z AUTO 01004KT 4SM BR SCT005 OVC010 19/19 A2992 RMK AO2 CIG 009V013 T01940189
KLVJ 221853Z AUTO 01004KT 4SM BR OVC004 19/19 A2993 RMK AO2 SLP135 T01940189
KLVJ 221832Z AUTO 02004KT 3SM BR OVC003 19/19 A2994 RMK AO2 T01890189
KLVJ 221753Z AUTO 05003KT 2 1/2SM BR OVC003 18/18 A2996 RMK AO2 SLP144 T01780178 10178 20111 55006
KLVJ 221720Z AUTO 00000KT 3SM BR OVC002 17/17 A2996 RMK AO2 T01720172
KLVJ 221712Z AUTO 10005KT 2 1/2SM BR OVC002 17/17 A2996 RMK AO2 T01720172
KLVJ 221703Z AUTO 10004KT 1 1/2SM BR OVC002 17/17 A2996 RMK AO2 T01670167
KLVJ 221653Z AUTO 10006KT 3/4SM BR OVC002 16/16 A2996 RMK AO2 SLP143 T01610161
KLVJ 221553Z AUTO 08008KT 1/4SM FG VV002 14/14 A2998 RMK AO2 SLP150 T01440144
KLVJ 221453Z AUTO 07005KT 1/2SM FG OVC002 13/13 A2998 RMK AO2 SLP151 T01280128 51005
KLVJ 221353Z AUTO 05005KT 1/2SM FG OVC002 12/12 A2997 RMK AO2 SLP149 T01170117
KLVJ 221253Z AUTO 06007KT 3/4SM BR VV002 11/11 A2997 RMK AO2 SLP149 T01110111
KLVJ 221216Z AUTO 04006KT 1SM BR OVC002 11/11 A2997 RMK AO2 T01110111
KLVJ 221204Z AUTO 03007KT 3/4SM BR OVC002 11/11 A2997 RMK AO2 T01110111
KLVJ 221153Z AUTO 03007KT 1SM BR OVC002 11/11 A2996 RMK AO2 SLP146 60001 70041 T01110111 10117 20106 53005
KLVJ 221053Z AUTO 04007KT 1SM BR OVC002 11/11 A2995 RMK AO2 SLP142 T01110111
KLVJ 220953Z AUTO 03007KT 1 3/4SM BR OVC002 11/11 A2995 RMK AO2 RAE17 SLP142 P0000 T01110111
KLVJ 220949Z AUTO 02005KT 1 3/4SM BR OVC002 11/11 A2995 RMK AO2 RAE17 P0000
KLVJ 220853Z AUTO 02007KT 2SM -RA BR OVC002 11/11 A2995 RMK AO2 RAB29 SLP142 P0000 60001 T01110111 50006
KLVJ 220846Z AUTO 01007KT 2SM -RA BR OVC002 11/11 A2996 RMK AO2 RAB29 P0000 T01110111
KLVJ 220753Z AUTO 02007KT 1 1/2SM BR OVC002 11/11 A2997 RMK AO2 RAB20E52 SLP148 P0001 T01110111
KLVJ 220719Z AUTO 01007KT 1SM BR OVC002 12/12 A2996 RMK AO2 T01170117
KLVJ 220653Z AUTO 01008KT 3/4SM BR OVC002 12/12 A2996 RMK AO2 SLP144 T01170117
KLVJ 220553Z AUTO 05006KT 3/4SM BR OVC002 12/12 A2994 RMK AO2 SLP136 T01170117 10117 20117 401390106 50001
KLVJ 220544Z AUTO 05007KT 3/4SM BR OVC002 12/12 A2995 RMK AO2 T01170117
KLVJ 220453Z AUTO 04005KT 1 1/4SM BR OVC002 12/12 A2994 RMK AO2 SLP139 T01170117
KLVJ 220353Z AUTO 05005KT 1 1/2SM BR OVC002 12/12 A2995 RMK AO2 SLP142 T01170117
KLVJ 220253Z AUTO 04008KT 2 1/2SM BR OVC003 12/12 A2993 RMK AO2 SLP135 T01170117 53011
KLVJ 220213Z AUTO 04010KT 2 1/2SM BR OVC003 12/12 A2991 RMK AO2 T01170117
KLVJ 220153Z AUTO 04006KT 3SM BR OVC003 12/12 A2992 RMK AO2 SLP129 T01170117
KLVJ 220124Z AUTO 03009KT 2 1/2SM BR OVC003 12/12 A2991 RMK AO2 T01170117
KLVJ 220109Z AUTO 03009KT 3SM BR OVC003 12/12 A2991 RMK AO2 T01170117
KLVJ 220053Z AUTO 03008KT 3SM BR OVC004 12/12 A2991 RMK AO2 SLP128 T01170117
KLVJ 220037Z AUTO 02009KT 2 1/2SM BR OVC004 12/12 A2991 RMK AO2 T01170117
KLVJ 220007Z AUTO 03007KT 3SM BR OVC004 12/12 A2990 RMK AO2 T01220122
KLVJ 212353Z AUTO 04010KT 2 1/2SM BR OVC004 12/12 A2990 RMK AO2 RAE07 SLP123 P0000 60000 T01220122 10122 20117 53003
KLVJ 212306Z AUTO 02010KT 2 1/2SM -RA BR OVC004 12/12 A2990 RMK AO2 P0000 T01220122
KLVJ 212253Z AUTO 03010KT 1 1/2SM -RA BR OVC004 12/12 A2990 RMK AO2 RAB36 SLP122 P0000 T01220122
KLVJ 212210Z AUTO 01009KT 1 3/4SM BR OVC004 12/12 A2989 RMK AO2 T01220122
KLVJ 212153Z AUTO 01008KT 2SM BR OVC004 12/12 A2989 RMK AO2 SLP121 T01220122
KLVJ 212127Z AUTO 03010KT 2SM BR OVC004 12/12 A2988 RMK AO2 T01220122
KLVJ 212053Z AUTO 02008KT 1 1/2SM BR OVC003 12/12 A2989 RMK AO2 SLP120 T01220122 56008
KLVJ 212024Z AUTO 02008KT 1 3/4SM BR OVC004 12/12 A2989 RMK AO2 T01220122
KLVJ 212007Z AUTO 01008KT 1 3/4SM BR OVC003 12/12 A2989 RMK AO2 T01220122
KLVJ 211957Z AUTO 01008KT 2SM BR OVC003 12/12 A2990 RMK AO2 T01220122
KLVJ 211953Z AUTO 02007KT 1 3/4SM BR OVC004 12/12 A2990 RMK AO2 SLP123 T01220122
KLVJ 211928Z AUTO 04005KT 1 3/4SM BR OVC004 12/12 A2990 RMK AO2 T01220122
KLVJ 211922Z AUTO 04008KT 2SM BR OVC003 12/12 A2991 RMK AO2 T01220122
KLVJ 211913Z AUTO 02008KT 1 3/4SM BR OVC003 12/12 A2991 RMK AO2 T01220122
KLVJ 211901Z AUTO 01008KT 1 1/2SM BR OVC004 12/12 A2991 RMK AO2 T01220122
KLVJ 211853Z AUTO 02008KT 2SM BR OVC004 12/12 A2991 RMK AO2 SLP128 T01220122
KLVJ 211846Z AUTO 05007KT 2 1/2SM BR OVC004 12/12 A2991 RMK AO2 T01220122